WetterOnline ( https://www.wetteronline.de )

Wetter aktuell Asperg

Aktuelles Wetter: Mühlacker (245m)

6-stündlich | Neueste Meldungen
Ortszeit Temperatur Wetter
So, 13.06. 20:00 21.9° C leicht bewölkt
So, 13.06. 14:00 21.7° C wolkenlos
So, 13.06. 8:00 15.6° C wolkenlos
So, 13.06. 2:00 12.6° C wolkig
Sa, 12.06. 20:00 20.4° C bedeckt
Sa, 12.06. 14:00 25.5° C wolkig
Sa, 12.06. 8:00 16.7° C leicht bewölkt
Sa, 12.06. 2:00 12.6° C wolkig
Ortszeit Temperatur Wetter
So, 13.06. 22:00 15.2° C wolkenlos
So, 13.06. 21:50 15.2° C wolkenlos
So, 13.06. 21:40 14.9° C wolkenlos
So, 13.06. 21:30 15.0° C wolkenlos
So, 13.06. 21:20 15.0° C wolkenlos
So, 13.06. 21:10 15.9° C fast wolkenlos
So, 13.06. 21:00 17.1° C leicht bewölkt
So, 13.06. 20:30 20.4° C fast wolkenlos
So, 13.06. 20:00 21.9° C leicht bewölkt
So, 13.06. 19:30 23.0° C wolkig
So, 13.06. 19:00 23.2° C leicht bewölkt
Ortszeit Relative Feuchte Sichtweite
So, 13.06. 20:00 47% 55 km
So, 13.06. 14:00 44% 30 km
So, 13.06. 8:00 77% 23 km
So, 13.06. 2:00 92% 18 km
Sa, 12.06. 20:00 68% 45 km
Sa, 12.06. 14:00 56% 45 km
Sa, 12.06. 8:00 90% 8 km
Sa, 12.06. 2:00 96% 6 km
Ortszeit Relative Feuchte Sichtweite
So, 13.06. 22:00 65% 70 km
So, 13.06. 21:50 65% -
So, 13.06. 21:40 72% -
So, 13.06. 21:30 77% 45 km
So, 13.06. 21:20 77% -
So, 13.06. 21:10 76% -
So, 13.06. 21:00 72% 45 km
So, 13.06. 20:30 54% 55 km
So, 13.06. 20:00 47% 55 km
So, 13.06. 19:30 46% 55 km
So, 13.06. 19:00 40% 50 km
Ortszeit Niederschlagsmenge Niederschlagsart
So, 13.06. 20:00 0.0 l/m2 in 12 Std. -
So, 13.06. 14:00 0.0 l/m2 in 6 Std. -
So, 13.06. 8:00 0.0 l/m2 in 12 Std. -
So, 13.06. 2:00 0.0 l/m2 in 6 Std. -
Sa, 12.06. 20:00 0.0 l/m2 in 12 Std. -
Sa, 12.06. 14:00 0.0 l/m2 in 6 Std. -
Sa, 12.06. 8:00 0.0 l/m2 in 12 Std. -
Sa, 12.06. 2:00 0.0 l/m2 in 6 Std. -
Ortszeit Niederschlagsmenge Niederschlagsart
So, 13.06. 22:00 0.0 l/m2 in 1 Std. -
So, 13.06. 21:50 keine Meldung -
So, 13.06. 21:40 keine Meldung -
So, 13.06. 21:30 0.0 l/m2 in 1 Std. -
So, 13.06. 21:20 keine Meldung -
So, 13.06. 21:10 keine Meldung -
So, 13.06. 21:00 0.0 l/m2 in 1 Std. -
So, 13.06. 20:30 0.0 l/m2 in 1 Std. -
So, 13.06. 20:00 0.0 l/m2 in 1 Std. -
So, 13.06. 19:30 0.0 l/m2 in 1 Std. -
So, 13.06. 19:00 0.0 l/m2 in 1 Std. -
Ortszeit Stärke Spitze Richtung
km/h Bft. km/h Grad Sektor
So, 13.06. 20:00 7 2 25 350° N
So, 13.06. 14:00 9 2 22 320° NW
So, 13.06. 8:00 6 1 9 300° NW
So, 13.06. 2:00 2 1 22 130° SO
Sa, 12.06. 20:00 15 3 37 330° NW
Sa, 12.06. 14:00 18 3 36 270° W
Sa, 12.06. 8:00 0 0 4 - -
Sa, 12.06. 2:00 2 1 15 40° NO
Ortszeit Stärke Spitze Richtung
km/h Bft. km/h Grad Sektor
So, 13.06. 22:00 9 2 17 40° NO
So, 13.06. 21:50 9 2 - 40° NO
So, 13.06. 21:40 7 2 - 40° NO
So, 13.06. 21:30 7 2 11 10° N
So, 13.06. 21:20 7 2 - 10° N
So, 13.06. 21:10 7 2 - 360° N
So, 13.06. 21:00 7 2 11 350° N
So, 13.06. 20:30 7 2 11 350° N
So, 13.06. 20:00 7 2 14 350° N
So, 13.06. 19:30 6 1 15 350° N
So, 13.06. 19:00 7 2 22 30° NO
Ortszeit Untergrenze Bedeckung Gattung
total tief tief mittel hoch
So, 13.06. 20:00 12000 m 4/8 0/8 - - -
So, 13.06. 14:00 - 0/8 0/8 - - -
So, 13.06. 8:00 - 0/8 0/8 - - -
So, 13.06. 2:00 9000 m 8/8 0/8 - - -
Sa, 12.06. 20:00 1500 m 8/8 8/8 - - -
Sa, 12.06. 14:00 1260 m 6/8 5/8 - - -
Sa, 12.06. 8:00 8400 m 8/8 0/8 - - -
Sa, 12.06. 2:00 8700 m 7/8 0/8 - - -
Ortszeit Bedeckungsgrad in Achtel und Wolkenuntergrenze
So, 13.06. 22:00 keine Wolken
So, 13.06. 21:50 keine Wolken
So, 13.06. 21:40 keine Wolken
So, 13.06. 21:30 keine Wolken
So, 13.06. 21:20 keine Wolken
So, 13.06. 21:10 2(12000m)
So, 13.06. 21:00 5(12000m)
So, 13.06. 20:30 1(12000m)
So, 13.06. 20:00 4(12000m)
So, 13.06. 19:30 7(12000m)
So, 13.06. 19:00 7(12000m)
Ortszeit Luftdruck NN (hPa) Tendenz (hPa in 3 Std.)
So, 13.06. 20:00 1024 - 0,4
So, 13.06. 14:00 1026 - 0,3
So, 13.06. 8:00 1026 + 1,3
So, 13.06. 2:00 1025 + 1,4
Sa, 12.06. 20:00 1021 + 1,8
Sa, 12.06. 14:00 1019 - 0,3
Sa, 12.06. 8:00 1020 + 0,4
Sa, 12.06. 2:00 1020 + 0,3
Ortszeit Luftdruck NN (hPa) Tendenz (hPa in 3 Std.)
So, 13.06. 22:00 1025 0,0
So, 13.06. 21:50 1025 keine Meldung
So, 13.06. 21:40 1025 keine Meldung
So, 13.06. 21:30 1025 - 0,3
So, 13.06. 21:20 1025 keine Meldung
So, 13.06. 21:10 1025 keine Meldung
So, 13.06. 21:00 1025 - 0,5
So, 13.06. 20:30 1024 - 0,5
So, 13.06. 20:00 1024 - 0,4
So, 13.06. 19:30 1024 - 0,8
So, 13.06. 19:00 1024 - 1,0
Ortszeit Schneehöhe (cm)
So, 13.06. 20:00 -
So, 13.06. 14:00 -
So, 13.06. 8:00 -
So, 13.06. 2:00 -
Sa, 12.06. 20:00 -
Sa, 12.06. 14:00 -
Sa, 12.06. 8:00 -
Sa, 12.06. 2:00 -
Ortszeit Schneehöhe (cm)
So, 13.06. 22:00 -
So, 13.06. 21:50 -
So, 13.06. 21:40 -
So, 13.06. 21:30 -
So, 13.06. 21:20 -
So, 13.06. 21:10 -
So, 13.06. 21:00 -
So, 13.06. 20:30 -
So, 13.06. 20:00 -
So, 13.06. 19:30 -
So, 13.06. 19:00 -
Link zu dieser Seite / Seite empfehlen

Das Wetter in ...